createdAt,value
2018-06-22T00:00:03.263Z,1016.86
2018-06-22T00:01:30.665Z,1016.88
2018-06-22T00:02:58.160Z,1016.87
2018-06-22T00:04:25.664Z,1016.86
2018-06-22T00:05:53.017Z,1016.85
2018-06-22T00:07:20.345Z,1016.85
2018-06-22T00:08:47.825Z,1016.88
2018-06-22T00:10:15.043Z,1016.88
2018-06-22T00:11:42.102Z,1016.86
2018-06-22T00:13:09.512Z,1016.85
2018-06-22T00:14:36.643Z,1016.82
2018-06-22T00:16:03.756Z,1016.83
2018-06-22T00:17:31.090Z,1016.80
2018-06-22T00:18:58.474Z,1016.82
2018-06-22T00:20:25.915Z,1016.82
2018-06-22T00:21:53.254Z,1016.83
2018-06-22T00:23:20.645Z,1016.84
2018-06-22T00:24:48.093Z,1016.83
2018-06-22T00:26:15.447Z,1016.82
2018-06-22T00:27:42.801Z,1016.79
2018-06-22T00:29:10.338Z,1016.75
2018-06-22T00:30:37.795Z,1016.75
2018-06-22T00:32:05.350Z,1016.70
2018-06-22T00:33:32.757Z,1016.70
2018-06-22T00:34:59.981Z,1016.67
2018-06-22T00:36:27.435Z,1016.66
2018-06-22T00:37:54.797Z,1016.68
2018-06-22T00:39:22.257Z,1016.67
2018-06-22T00:40:49.648Z,1016.65
2018-06-22T00:42:16.919Z,1016.67
2018-06-22T00:43:44.061Z,1016.67
2018-06-22T00:45:11.693Z,1016.70
2018-06-22T00:46:39.064Z,1016.69
2018-06-22T00:48:06.255Z,1016.66
2018-06-22T00:49:33.601Z,1016.66
2018-06-22T00:51:01.037Z,1016.66
2018-06-22T00:52:28.355Z,1016.64
2018-06-22T00:53:55.851Z,1016.62
2018-06-22T00:55:23.306Z,1016.63
2018-06-22T00:56:50.614Z,1016.64
2018-06-22T00:58:17.980Z,1016.65
2018-06-22T00:59:45.399Z,1016.63
2018-06-22T01:01:12.762Z,1016.63
2018-06-22T01:02:40.058Z,1016.64
2018-06-22T01:04:07.353Z,1016.63
2018-06-22T01:05:34.706Z,1016.62
2018-06-22T01:07:02.226Z,1016.58
2018-06-22T01:08:29.400Z,1016.59
2018-06-22T01:09:56.829Z,1016.54
2018-06-22T01:11:24.100Z,1016.54
2018-06-22T01:12:51.664Z,1016.53
2018-06-22T01:14:18.820Z,1016.54
2018-06-22T01:15:46.334Z,1016.50
2018-06-22T01:17:13.501Z,1016.54
2018-06-22T01:18:40.864Z,1016.51
2018-06-22T01:20:08.102Z,1016.50
2018-06-22T01:21:35.268Z,1016.48
2018-06-22T01:23:02.596Z,1016.49
2018-06-22T01:24:30.058Z,1016.48
2018-06-22T01:25:57.233Z,1016.50
2018-06-22T01:27:24.653Z,1016.45
2018-06-22T01:28:51.860Z,1016.47
2018-06-22T01:30:19.105Z,1016.44
2018-06-22T01:31:46.327Z,1016.43
2018-06-22T01:33:13.606Z,1016.40
2018-06-22T01:34:45.268Z,1016.41
2018-06-22T01:36:08.467Z,1016.38
2018-06-22T01:37:35.857Z,1016.40
2018-06-22T01:39:03.046Z,1016.39
2018-06-22T01:40:30.398Z,1016.40
2018-06-22T01:41:57.761Z,1016.40
2018-06-22T01:43:25.112Z,1016.37
2018-06-22T01:44:52.509Z,1016.40
2018-06-22T01:46:19.769Z,1016.39
2018-06-22T01:47:47.171Z,1016.40
2018-06-22T01:49:14.589Z,1016.35
2018-06-22T01:50:41.865Z,1016.35
2018-06-22T01:52:09.254Z,1016.34
2018-06-22T01:53:36.673Z,1016.34
2018-06-22T01:55:04.306Z,1016.34
2018-06-22T01:56:31.528Z,1016.37
2018-06-22T01:57:58.909Z,1016.37
2018-06-22T01:59:26.306Z,1016.37
2018-06-22T02:00:53.748Z,1016.40
2018-06-22T02:02:21.143Z,1016.40
2018-06-22T02:03:48.612Z,1016.39
2018-06-22T02:05:16.027Z,1016.37
2018-06-22T02:06:43.266Z,1016.34
2018-06-22T02:08:10.636Z,1016.32
2018-06-22T02:09:38.124Z,1016.33
2018-06-22T02:11:05.448Z,1016.36
2018-06-22T02:12:32.779Z,1016.35
2018-06-22T02:14:00.056Z,1016.40
2018-06-22T02:15:27.495Z,1016.44
2018-06-22T02:16:54.672Z,1016.47
2018-06-22T02:18:22.069Z,1016.44
2018-06-22T02:19:49.420Z,1016.44
2018-06-22T02:21:16.678Z,1016.46
2018-06-22T02:22:44.011Z,1016.45
2018-06-22T02:24:11.462Z,1016.43
2018-06-22T02:25:38.963Z,1016.41
2018-06-22T02:27:06.440Z,1016.43
2018-06-22T02:28:33.774Z,1016.43
2018-06-22T02:30:01.231Z,1016.42
2018-06-22T02:31:28.523Z,1016.46
2018-06-22T02:32:55.768Z,1016.44
2018-06-22T02:34:23.205Z,1016.46
2018-06-22T02:35:50.492Z,1016.39
2018-06-22T02:37:17.792Z,1016.38
2018-06-22T02:38:45.134Z,1016.40
2018-06-22T02:40:12.500Z,1016.39
2018-06-22T02:41:40.000Z,1016.38
2018-06-22T02:43:07.396Z,1016.34
2018-06-22T02:44:34.753Z,1016.34
2018-06-22T02:46:02.226Z,1016.32
2018-06-22T02:47:29.568Z,1016.36
2018-06-22T02:48:56.777Z,1016.34
2018-06-22T02:50:24.142Z,1016.34
2018-06-22T02:51:51.596Z,1016.33
2018-06-22T02:53:19.016Z,1016.32
2018-06-22T02:54:46.169Z,1016.32
2018-06-22T02:56:13.604Z,1016.35
2018-06-22T02:57:41.112Z,1016.36
2018-06-22T02:59:08.594Z,1016.38
2018-06-22T03:00:35.904Z,1016.36
2018-06-22T03:02:03.094Z,1016.35
2018-06-22T03:03:30.428Z,1016.37
2018-06-22T03:04:57.685Z,1016.34
2018-06-22T03:06:25.082Z,1016.37
2018-06-22T03:07:52.490Z,1016.38
2018-06-22T03:09:19.871Z,1016.39
2018-06-22T03:10:47.163Z,1016.40
2018-06-22T03:12:14.535Z,1016.43
2018-06-22T03:13:41.733Z,1016.38
2018-06-22T03:15:09.068Z,1016.38
2018-06-22T03:16:36.567Z,1016.34
2018-06-22T03:18:03.784Z,1016.32
2018-06-22T03:19:31.386Z,1016.35
2018-06-22T03:20:58.850Z,1016.34
2018-06-22T03:22:26.356Z,1016.31
2018-06-22T03:23:54.419Z,1016.31
2018-06-22T03:25:21.019Z,1016.34
2018-06-22T03:26:48.179Z,1016.32
2018-06-22T03:28:15.544Z,1016.30
2018-06-22T03:29:42.799Z,1016.29
2018-06-22T03:31:10.295Z,1016.32
2018-06-22T03:32:37.760Z,1016.31
2018-06-22T03:34:05.291Z,1016.34
2018-06-22T03:35:32.818Z,1016.32
2018-06-22T03:37:00.100Z,1016.28
2018-06-22T03:38:27.577Z,1016.26
2018-06-22T03:39:55.010Z,1016.25
2018-06-22T03:41:22.376Z,1016.27
2018-06-22T03:42:49.654Z,1016.29
2018-06-22T03:44:17.148Z,1016.30
2018-06-22T03:45:44.480Z,1016.30
2018-06-22T03:47:11.751Z,1016.30
2018-06-22T03:48:39.150Z,1016.29
2018-06-22T03:50:06.464Z,1016.28
2018-06-22T03:51:33.849Z,1016.27
2018-06-22T03:53:01.183Z,1016.27
2018-06-22T03:54:28.380Z,1016.28
2018-06-22T03:55:55.771Z,1016.26
2018-06-22T03:57:23.045Z,1016.20
2018-06-22T03:58:50.427Z,1016.21
2018-06-22T04:00:17.782Z,1016.16
2018-06-22T04:01:45.399Z,1016.13
2018-06-22T04:03:12.637Z,1016.06
2018-06-22T04:04:39.965Z,1016.08
2018-06-22T04:06:07.379Z,1016.10
2018-06-22T04:07:34.746Z,1016.12
2018-06-22T04:09:02.223Z,1016.16
2018-06-22T04:10:29.481Z,1016.20
2018-06-22T04:11:57.096Z,1016.21
2018-06-22T04:13:24.532Z,1016.21
2018-06-22T04:14:51.991Z,1016.21
2018-06-22T04:16:19.345Z,1016.20
2018-06-22T04:17:46.818Z,1016.19
2018-06-22T04:19:14.000Z,1016.21
2018-06-22T04:20:41.666Z,1016.20
2018-06-22T04:22:09.167Z,1016.13
2018-06-22T04:23:36.439Z,1016.12
2018-06-22T04:25:04.005Z,1016.12
2018-06-22T04:26:31.331Z,1016.10
2018-06-22T04:27:58.752Z,1016.11
2018-06-22T04:29:25.938Z,1016.16
2018-06-22T04:30:53.597Z,1016.15
2018-06-22T04:32:20.955Z,1016.16
2018-06-22T04:33:48.319Z,1016.17
2018-06-22T04:35:15.816Z,1016.19
2018-06-22T04:36:43.312Z,1016.18
2018-06-22T04:38:10.571Z,1016.22
2018-06-22T04:39:38.020Z,1016.19
2018-06-22T04:41:05.197Z,1016.22
2018-06-22T04:42:32.707Z,1016.28
2018-06-22T04:43:59.984Z,1016.31
2018-06-22T04:45:27.375Z,1016.29
2018-06-22T04:46:54.595Z,1016.30
2018-06-22T04:48:22.134Z,1016.30
2018-06-22T04:49:49.203Z,1016.33
2018-06-22T04:51:16.678Z,1016.30
2018-06-22T04:52:43.984Z,1016.33
2018-06-22T04:54:11.589Z,1016.33
2018-06-22T04:55:39.137Z,1016.37
2018-06-22T04:57:06.530Z,1016.40
2018-06-22T04:58:34.064Z,1016.39
2018-06-22T05:00:01.439Z,1016.42
2018-06-22T05:01:28.847Z,1016.43
2018-06-22T05:02:56.255Z,1016.46
2018-06-22T05:04:23.592Z,1016.43
2018-06-22T05:05:50.937Z,1016.45
2018-06-22T05:07:19.525Z,1016.45
2018-06-22T05:08:45.984Z,1016.50
2018-06-22T05:10:13.305Z,1016.49
2018-06-22T05:11:40.827Z,1016.52
2018-06-22T05:13:08.251Z,1016.49
2018-06-22T05:14:35.676Z,1016.50
2018-06-22T05:16:03.206Z,1016.51
2018-06-22T05:17:30.594Z,1016.53
2018-06-22T05:18:57.991Z,1016.57
2018-06-22T05:20:25.560Z,1016.57
2018-06-22T05:21:52.823Z,1016.60
2018-06-22T05:23:20.272Z,1016.57
2018-06-22T05:24:47.769Z,1016.59
2018-06-22T05:26:14.909Z,1016.60
2018-06-22T05:27:42.258Z,1016.59
2018-06-22T05:29:09.695Z,1016.60
2018-06-22T05:30:36.901Z,1016.57
2018-06-22T05:32:04.450Z,1016.57
2018-06-22T05:33:31.821Z,1016.58
2018-06-22T05:34:59.325Z,1016.58
2018-06-22T05:36:26.801Z,1016.58
2018-06-22T05:37:54.244Z,1016.60
2018-06-22T05:39:21.625Z,1016.58
2018-06-22T05:40:49.349Z,1016.52
2018-06-22T05:42:16.548Z,1016.54
2018-06-22T05:43:44.242Z,1016.52
2018-06-22T05:45:11.908Z,1016.55
2018-06-22T05:46:39.359Z,1016.56
2018-06-22T05:48:06.816Z,1016.56
2018-06-22T05:49:34.277Z,1016.58
2018-06-22T05:51:01.757Z,1016.60
2018-06-22T05:52:29.169Z,1016.62
2018-06-22T05:53:56.610Z,1016.64
2018-06-22T05:55:24.131Z,1016.64
2018-06-22T05:56:51.777Z,1016.73
2018-06-22T05:58:19.090Z,1016.75
2018-06-22T05:59:46.413Z,1016.77
2018-06-22T06:01:13.737Z,1016.80
2018-06-22T06:02:41.193Z,1016.80
2018-06-22T06:04:08.628Z,1016.85
2018-06-22T06:05:36.252Z,1016.86
2018-06-22T06:07:03.529Z,1016.86
2018-06-22T06:08:30.663Z,1016.88
2018-06-22T06:09:58.138Z,1016.90
2018-06-22T06:11:25.606Z,1016.88
2018-06-22T06:12:52.961Z,1016.92
2018-06-22T06:14:20.232Z,1016.93
2018-06-22T06:15:47.703Z,1016.96
2018-06-22T06:17:15.059Z,1017.00
2018-06-22T06:18:42.298Z,1016.96
2018-06-22T06:20:09.768Z,1016.93
2018-06-22T06:21:36.851Z,1016.95
2018-06-22T06:23:04.245Z,1016.92
2018-06-22T06:24:31.681Z,1016.91
2018-06-22T06:25:59.092Z,1016.93
2018-06-22T06:27:26.472Z,1016.88
2018-06-22T06:28:53.903Z,1016.85
2018-06-22T06:30:21.469Z,1016.86
2018-06-22T06:31:48.739Z,1016.87
2018-06-22T06:33:16.113Z,1016.86
2018-06-22T06:34:43.488Z,1016.88
2018-06-22T06:36:10.970Z,1016.92
2018-06-22T06:37:38.394Z,1016.97
2018-06-22T06:39:05.887Z,1016.97
2018-06-22T06:40:33.180Z,1016.97
2018-06-22T06:42:00.519Z,1017.00
2018-06-22T06:43:27.873Z,1017.00
2018-06-22T06:44:55.465Z,1017.02
2018-06-22T06:46:22.722Z,1017.07
2018-06-22T06:47:50.107Z,1017.08
2018-06-22T06:49:17.445Z,1017.06
2018-06-22T06:50:45.103Z,1017.09
2018-06-22T06:52:12.250Z,1017.11
2018-06-22T06:53:39.726Z,1017.13
2018-06-22T06:55:07.275Z,1017.09
2018-06-22T06:56:34.656Z,1017.10
2018-06-22T06:58:01.920Z,1017.13
2018-06-22T06:59:29.428Z,1017.10
2018-06-22T07:00:57.029Z,1017.12
2018-06-22T07:02:24.396Z,1017.09
2018-06-22T07:03:51.894Z,1017.11
2018-06-22T07:05:19.292Z,1017.13
2018-06-22T07:06:46.837Z,1017.15
2018-06-22T07:08:14.088Z,1017.22
2018-06-22T07:09:41.729Z,1017.21
2018-06-22T07:11:09.131Z,1017.24
2018-06-22T07:12:36.472Z,1017.28
2018-06-22T07:14:04.041Z,1017.30
2018-06-22T07:15:31.405Z,1017.37
2018-06-22T07:16:58.661Z,1017.39
2018-06-22T07:18:26.132Z,1017.43
2018-06-22T07:19:53.396Z,1017.44
2018-06-22T07:21:20.741Z,1017.43
2018-06-22T07:22:48.131Z,1017.47
2018-06-22T07:24:15.361Z,1017.49
2018-06-22T07:25:42.960Z,1017.47
2018-06-22T07:27:10.327Z,1017.45
2018-06-22T07:28:37.992Z,1017.43
2018-06-22T07:30:05.213Z,1017.47
2018-06-22T07:31:32.658Z,1017.39
2018-06-22T07:33:00.196Z,1017.39
2018-06-22T07:34:27.608Z,1017.35
2018-06-22T07:35:55.065Z,1017.35
2018-06-22T07:37:22.139Z,1017.33
2018-06-22T07:38:49.626Z,1017.33
2018-06-22T07:40:16.771Z,1017.33
2018-06-22T07:41:44.102Z,1017.33
2018-06-22T07:43:11.550Z,1017.39
2018-06-22T07:44:39.021Z,1017.43
2018-06-22T07:46:06.407Z,1017.50
2018-06-22T07:47:33.891Z,1017.46
2018-06-22T07:49:01.037Z,1017.47
2018-06-22T07:50:28.274Z,1017.47
2018-06-22T07:51:55.717Z,1017.46
2018-06-22T07:53:23.286Z,1017.47
2018-06-22T07:54:50.627Z,1017.48
2018-06-22T07:56:17.907Z,1017.52
2018-06-22T07:57:45.367Z,1017.45
2018-06-22T07:59:12.618Z,1017.49
2018-06-22T08:00:40.143Z,1017.50
2018-06-22T08:02:07.464Z,1017.55
2018-06-22T08:03:34.999Z,1017.53
2018-06-22T08:05:02.508Z,1017.54
2018-06-22T08:06:29.858Z,1017.55
2018-06-22T08:07:57.332Z,1017.55
2018-06-22T08:09:24.940Z,1017.58
2018-06-22T08:10:52.204Z,1017.61
2018-06-22T08:12:19.868Z,1017.61
2018-06-22T08:13:47.205Z,1017.60
2018-06-22T08:15:14.217Z,1017.61
2018-06-22T08:16:41.606Z,1017.61
2018-06-22T08:18:09.222Z,1017.63
2018-06-22T08:19:36.754Z,1017.61
2018-06-22T08:21:04.123Z,1017.61
2018-06-22T08:22:31.560Z,1017.63
2018-06-22T08:23:59.166Z,1017.61
2018-06-22T08:25:26.328Z,1017.66
2018-06-22T08:26:53.818Z,1017.66
2018-06-22T08:28:22.396Z,1017.70
2018-06-22T08:29:48.535Z,1017.66
2018-06-22T08:31:15.955Z,1017.74
2018-06-22T08:32:42.548Z,1017.73
2018-06-22T08:34:10.052Z,1017.83
2018-06-22T08:35:37.381Z,1017.81
2018-06-22T08:37:04.790Z,1017.81
2018-06-22T08:38:31.455Z,1017.89
2018-06-22T08:39:58.910Z,1017.93
2018-06-22T08:41:26.349Z,1017.99
2018-06-22T08:42:53.679Z,1017.96
2018-06-22T08:44:21.152Z,1017.92
2018-06-22T08:45:48.668Z,1017.93
2018-06-22T08:47:16.128Z,1017.88
2018-06-22T08:48:43.350Z,1017.84
2018-06-22T08:50:09.912Z,1017.84
2018-06-22T08:51:37.474Z,1017.89
2018-06-22T08:53:04.951Z,1017.85
2018-06-22T08:54:32.439Z,1017.87
2018-06-22T08:56:00.087Z,1017.88
2018-06-22T08:57:26.623Z,1017.93
2018-06-22T08:58:53.970Z,1017.94
2018-06-22T09:00:20.633Z,1017.95
2018-06-22T09:01:47.950Z,1017.92
2018-06-22T09:03:15.437Z,1017.95
2018-06-22T09:04:42.831Z,1018.00
2018-06-22T09:06:10.099Z,1018.01
2018-06-22T09:07:37.573Z,1017.98
2018-06-22T09:09:04.740Z,1018.01
2018-06-22T09:10:31.735Z,1018.00
2018-06-22T09:11:59.179Z,1018.02
2018-06-22T09:13:26.700Z,1017.98
2018-06-22T09:14:53.924Z,1018.07
2018-06-22T09:16:21.273Z,1018.09
2018-06-22T09:17:48.739Z,1018.11
2018-06-22T09:19:16.100Z,1018.14
2018-06-22T09:20:43.522Z,1018.14
2018-06-22T09:22:10.625Z,1018.12
2018-06-22T09:23:38.149Z,1018.14
2018-06-22T09:25:04.824Z,1018.06
2018-06-22T09:26:31.279Z,1018.11
2018-06-22T09:27:58.736Z,1018.13
2018-06-22T09:29:26.201Z,1018.12
2018-06-22T09:30:53.587Z,1018.11
2018-06-22T09:32:20.820Z,1018.13
2018-06-22T09:33:48.480Z,1018.12
2018-06-22T09:35:15.810Z,1018.09
2018-06-22T09:36:43.257Z,1018.10
2018-06-22T09:38:10.708Z,1018.15
2018-06-22T09:39:38.300Z,1018.14
2018-06-22T09:41:05.804Z,1018.14
2018-06-22T09:42:32.743Z,1018.15
2018-06-22T09:43:59.953Z,1018.14
2018-06-22T09:45:27.724Z,1018.20
2018-06-22T09:46:55.018Z,1018.23
2018-06-22T09:48:22.353Z,1018.19
2018-06-22T09:49:49.781Z,1018.21
2018-06-22T09:51:17.226Z,1018.20
2018-06-22T09:52:44.787Z,1018.19
2018-06-22T09:54:12.125Z,1018.22
2018-06-22T09:55:39.399Z,1018.28
2018-06-22T09:57:06.968Z,1018.33
2018-06-22T09:58:34.056Z,1018.37
2018-06-22T10:00:01.552Z,1018.34
2018-06-22T10:01:28.750Z,1018.32
2018-06-22T10:02:56.444Z,1018.35
2018-06-22T10:04:23.763Z,1018.33
2018-06-22T10:05:51.095Z,1018.29
2018-06-22T10:07:18.570Z,1018.34
2018-06-22T10:08:45.720Z,1018.45
2018-06-22T10:10:12.948Z,1018.37
2018-06-22T10:11:40.667Z,1018.38
2018-06-22T10:13:08.132Z,1018.38
2018-06-22T10:14:35.415Z,1018.36
2018-06-22T10:16:02.791Z,1018.39
2018-06-22T10:17:30.206Z,1018.37
2018-06-22T10:18:57.492Z,1018.34
2018-06-22T10:20:24.556Z,1018.30
2018-06-22T10:21:51.912Z,1018.36
2018-06-22T10:23:19.490Z,1018.32
2018-06-22T10:24:46.649Z,1018.32
2018-06-22T10:26:14.123Z,1018.28
2018-06-22T10:27:41.581Z,1018.28
2018-06-22T10:29:08.988Z,1018.26
2018-06-22T10:30:36.344Z,1018.27
2018-06-22T10:32:03.850Z,1018.36
2018-06-22T10:33:30.596Z,1018.35
2018-06-22T10:34:58.151Z,1018.37
2018-06-22T10:36:25.492Z,1018.38
2018-06-22T10:37:52.961Z,1018.36
2018-06-22T10:39:20.436Z,1018.38
2018-06-22T10:40:47.476Z,1018.36
2018-06-22T10:42:15.003Z,1018.32
2018-06-22T10:43:42.337Z,1018.31
2018-06-22T10:45:09.910Z,1018.33
2018-06-22T10:46:37.189Z,1018.41
2018-06-22T10:48:04.670Z,1018.41
2018-06-22T10:49:31.936Z,1018.35
2018-06-22T10:50:59.498Z,1018.37
2018-06-22T10:52:27.141Z,1018.43
2018-06-22T10:53:54.559Z,1018.42
2018-06-22T10:55:22.055Z,1018.40
2018-06-22T10:56:49.568Z,1018.36
2018-06-22T10:58:17.249Z,1018.34
2018-06-22T10:59:44.861Z,1018.39
2018-06-22T11:01:12.179Z,1018.45
2018-06-22T11:02:39.602Z,1018.46
2018-06-22T11:04:06.451Z,1018.44
2018-06-22T11:05:33.882Z,1018.46
2018-06-22T11:07:01.120Z,1018.42
2018-06-22T11:08:28.856Z,1018.41
2018-06-22T11:09:56.348Z,1018.45
2018-06-22T11:11:23.292Z,1018.40
2018-06-22T11:12:50.672Z,1018.46
2018-06-22T11:14:18.436Z,1018.44
2018-06-22T11:15:45.524Z,1018.42
2018-06-22T11:17:12.753Z,1018.43
2018-06-22T11:18:40.328Z,1018.41
2018-06-22T11:20:07.138Z,1018.43
2018-06-22T11:21:34.514Z,1018.48
2018-06-22T11:23:02.125Z,1018.41
2018-06-22T11:24:29.837Z,1018.42
2018-06-22T11:25:57.393Z,1018.41
2018-06-22T11:27:24.887Z,1018.38
2018-06-22T11:28:52.602Z,1018.42
2018-06-22T11:30:20.001Z,1018.43
2018-06-22T11:31:47.620Z,1018.51
2018-06-22T11:33:14.875Z,1018.46
2018-06-22T11:34:42.202Z,1018.41
2018-06-22T11:36:10.022Z,1018.38
2018-06-22T11:37:36.993Z,1018.36
2018-06-22T11:39:04.248Z,1018.36
2018-06-22T11:40:31.863Z,1018.34
2018-06-22T11:41:59.450Z,1018.34
2018-06-22T11:43:26.850Z,1018.29
2018-06-22T11:44:54.026Z,1018.27
2018-06-22T11:46:21.610Z,1018.30
2018-06-22T11:47:49.188Z,1018.38
2018-06-22T11:49:16.737Z,1018.41
2018-06-22T11:50:43.407Z,1018.45
2018-06-22T11:52:10.367Z,1018.49
2018-06-22T11:53:37.475Z,1018.45
2018-06-22T11:55:04.629Z,1018.43
2018-06-22T11:56:31.957Z,1018.40
2018-06-22T11:57:58.753Z,1018.43
2018-06-22T11:59:26.274Z,1018.38
2018-06-22T12:00:53.393Z,1018.43
2018-06-22T12:02:20.894Z,1018.47
2018-06-22T12:03:48.425Z,1018.49
2018-06-22T12:05:15.849Z,1018.49
2018-06-22T12:06:43.186Z,1018.51
2018-06-22T12:08:10.688Z,1018.58
2018-06-22T12:09:38.166Z,1018.52
2018-06-22T12:11:05.686Z,1018.52
2018-06-22T12:12:33.239Z,1018.52
2018-06-22T12:14:00.573Z,1018.56
2018-06-22T12:15:28.199Z,1018.49
2018-06-22T12:16:55.592Z,1018.49
2018-06-22T12:18:22.370Z,1018.49
2018-06-22T12:19:49.875Z,1018.49
2018-06-22T12:21:17.024Z,1018.47
2018-06-22T12:22:44.251Z,1018.46
2018-06-22T12:24:11.689Z,1018.50
2018-06-22T12:25:39.397Z,1018.52
2018-06-22T12:27:06.548Z,1018.50
2018-06-22T12:28:37.042Z,1018.46
2018-06-22T12:30:01.647Z,1018.44
2018-06-22T12:31:29.014Z,1018.49
2018-06-22T12:32:56.253Z,1018.46
2018-06-22T12:34:23.286Z,1018.49
2018-06-22T12:35:50.006Z,1018.52
2018-06-22T12:37:17.649Z,1018.51
2018-06-22T12:38:45.060Z,1018.47
2018-06-22T12:40:12.589Z,1018.50
2018-06-22T12:41:39.565Z,1018.47
2018-06-22T12:43:07.051Z,1018.48
2018-06-22T12:44:34.753Z,1018.50
2018-06-22T12:46:02.308Z,1018.50
2018-06-22T12:47:28.956Z,1018.55
2018-06-22T12:48:56.612Z,1018.56
2018-06-22T12:50:23.958Z,1018.59
2018-06-22T12:51:51.360Z,1018.61
2018-06-22T12:53:18.831Z,1018.62
2018-06-22T12:54:46.282Z,1018.63
2018-06-22T12:56:13.871Z,1018.60
2018-06-22T12:57:41.522Z,1018.61
2018-06-22T12:59:09.016Z,1018.59
2018-06-22T13:00:36.661Z,1018.58
2018-06-22T13:02:04.268Z,1018.59
2018-06-22T13:03:31.906Z,1018.57
2018-06-22T13:04:59.363Z,1018.55
2018-06-22T13:06:26.874Z,1018.56
2018-06-22T13:07:53.809Z,1018.60
2018-06-22T13:09:21.518Z,1018.58
2018-06-22T13:10:48.857Z,1018.62
2018-06-22T13:12:15.625Z,1018.63
2018-06-22T13:13:43.069Z,1018.62
2018-06-22T13:15:10.534Z,1018.66
2018-06-22T13:16:38.137Z,1018.65
2018-06-22T13:18:05.432Z,1018.73
2018-06-22T13:19:32.598Z,1018.69
2018-06-22T13:21:00.323Z,1018.72
2018-06-22T13:22:27.403Z,1018.76
2018-06-22T13:23:54.751Z,1018.81
2018-06-22T13:25:21.825Z,1018.76
2018-06-22T13:26:49.524Z,1018.75
2018-06-22T13:28:16.809Z,1018.71
2018-06-22T13:29:44.399Z,1018.73
2018-06-22T13:31:12.127Z,1018.68
2018-06-22T13:32:38.827Z,1018.65
2018-06-22T13:34:06.042Z,1018.62
2018-06-22T13:35:33.191Z,1018.64
2018-06-22T13:36:59.997Z,1018.64
2018-06-22T13:38:27.532Z,1018.66
2018-06-22T13:39:54.907Z,1018.71
2018-06-22T13:41:21.959Z,1018.74
2018-06-22T13:42:48.853Z,1018.74
2018-06-22T13:44:16.496Z,1018.74
2018-06-22T13:45:44.595Z,1018.75
2018-06-22T13:47:11.192Z,1018.74
2018-06-22T13:48:38.828Z,1018.75
2018-06-22T13:50:06.475Z,1018.68
2018-06-22T13:51:33.311Z,1018.66
2018-06-22T13:53:00.497Z,1018.66
2018-06-22T13:54:28.244Z,1018.65
2018-06-22T13:55:55.581Z,1018.68
2018-06-22T13:57:22.850Z,1018.71
2018-06-22T13:58:49.923Z,1018.67
2018-06-22T14:00:17.344Z,1018.64
2018-06-22T14:01:45.027Z,1018.66
2018-06-22T14:03:12.244Z,1018.66
2018-06-22T14:04:39.610Z,1018.74
2018-06-22T14:06:06.958Z,1018.75
2018-06-22T14:07:34.586Z,1018.75
2018-06-22T14:09:02.167Z,1018.67
2018-06-22T14:10:29.445Z,1018.62
2018-06-22T14:11:56.933Z,1018.64
2018-06-22T14:13:24.268Z,1018.68
2018-06-22T14:14:51.237Z,1018.73
2018-06-22T14:16:18.587Z,1018.74
2018-06-22T14:17:45.733Z,1018.79
2018-06-22T14:19:12.992Z,1018.78
2018-06-22T14:20:39.919Z,1018.77
2018-06-22T14:22:07.398Z,1018.69
2018-06-22T14:23:35.027Z,1018.66
2018-06-22T14:25:02.512Z,1018.71
2018-06-22T14:26:29.955Z,1018.69
2018-06-22T14:27:57.476Z,1018.73
2018-06-22T14:29:25.082Z,1018.68
2018-06-22T14:30:52.468Z,1018.76
2018-06-22T14:32:19.972Z,1018.70
2018-06-22T14:33:47.487Z,1018.71
2018-06-22T14:35:14.728Z,1018.69
2018-06-22T14:36:42.198Z,1018.72
2018-06-22T14:38:10.555Z,1018.73
2018-06-22T14:39:36.894Z,1018.76
2018-06-22T14:41:04.504Z,1018.79
2018-06-22T14:42:32.099Z,1018.88
2018-06-22T14:43:59.503Z,1018.92
2018-06-22T14:45:26.673Z,1018.97
2018-06-22T14:46:54.143Z,1019.08
2018-06-22T14:48:21.429Z,1019.05
2018-06-22T14:49:48.983Z,1019.07
2018-06-22T14:51:16.288Z,1019.09
2018-06-22T14:52:43.723Z,1019.10
2018-06-22T14:54:11.064Z,1019.08
2018-06-22T14:55:38.574Z,1019.11
2018-06-22T14:57:06.233Z,1019.14
2018-06-22T14:58:33.226Z,1019.15
2018-06-22T15:00:00.363Z,1019.14
2018-06-22T15:01:27.732Z,1019.10
2018-06-22T15:02:54.931Z,1019.11
2018-06-22T15:04:22.207Z,1019.05
2018-06-22T15:05:49.650Z,1019.09
2018-06-22T15:07:17.175Z,1019.02
2018-06-22T15:08:44.640Z,1018.97
2018-06-22T15:10:12.077Z,1019.00
2018-06-22T15:11:38.729Z,1018.93
2018-06-22T15:13:06.220Z,1018.95
2018-06-22T15:14:33.660Z,1018.90
2018-06-22T15:16:01.265Z,1018.95
2018-06-22T15:17:28.706Z,1019.00
2018-06-22T15:18:56.154Z,1019.03
2018-06-22T15:20:23.778Z,1019.02
2018-06-22T15:21:50.717Z,1019.00
2018-06-22T15:23:18.307Z,1019.01
2018-06-22T15:24:45.777Z,1019.02
2018-06-22T15:26:12.874Z,1018.98
2018-06-22T15:27:40.498Z,1019.01
2018-06-22T15:29:07.942Z,1019.01
2018-06-22T15:30:35.225Z,1018.97
2018-06-22T15:32:02.667Z,1019.05
2018-06-22T15:33:30.189Z,1019.11
2018-06-22T15:34:57.768Z,1019.07
2018-06-22T15:36:25.207Z,1019.10
2018-06-22T15:37:52.774Z,1019.17
2018-06-22T15:39:20.317Z,1019.16
2018-06-22T15:40:47.888Z,1019.23
2018-06-22T15:42:15.260Z,1019.26
2018-06-22T15:43:42.908Z,1019.29
2018-06-22T15:45:10.487Z,1019.35
2018-06-22T15:46:37.760Z,1019.38
2018-06-22T15:48:04.995Z,1019.31
2018-06-22T15:49:32.616Z,1019.37
2018-06-22T15:51:00.006Z,1019.38
2018-06-22T15:52:27.767Z,1019.44
2018-06-22T15:53:55.277Z,1019.48
2018-06-22T15:55:22.782Z,1019.52
2018-06-22T15:56:49.642Z,1019.48
2018-06-22T15:58:16.574Z,1019.52
2018-06-22T15:59:44.027Z,1019.56
2018-06-22T16:01:11.598Z,1019.55
2018-06-22T16:02:38.995Z,1019.55
2018-06-22T16:04:05.956Z,1019.53
2018-06-22T16:05:33.466Z,1019.49
2018-06-22T16:07:00.792Z,1019.50
2018-06-22T16:08:28.381Z,1019.50
2018-06-22T16:09:55.656Z,1019.54
2018-06-22T16:11:23.348Z,1019.55
2018-06-22T16:12:50.883Z,1019.56
2018-06-22T16:14:18.440Z,1019.52
2018-06-22T16:15:45.770Z,1019.52
2018-06-22T16:17:12.487Z,1019.59
2018-06-22T16:18:40.174Z,1019.52
2018-06-22T16:20:07.045Z,1019.51
2018-06-22T16:21:34.449Z,1019.52
2018-06-22T16:23:01.014Z,1019.54
2018-06-22T16:24:28.377Z,1019.55
2018-06-22T16:25:55.863Z,1019.61
2018-06-22T16:27:22.979Z,1019.61
2018-06-22T16:28:52.201Z,1019.56
2018-06-22T16:30:16.772Z,1019.62
2018-06-22T16:31:44.181Z,1019.59
2018-06-22T16:33:10.725Z,1019.66
2018-06-22T16:34:37.987Z,1019.64
2018-06-22T16:36:05.749Z,1019.64
2018-06-22T16:37:32.072Z,1019.67
2018-06-22T16:38:59.594Z,1019.76
2018-06-22T16:40:26.995Z,1019.80
2018-06-22T16:41:54.486Z,1019.81
2018-06-22T16:43:22.037Z,1019.78
2018-06-22T16:44:49.254Z,1019.82
2018-06-22T16:46:16.271Z,1019.78
2018-06-22T16:47:43.784Z,1019.80
2018-06-22T16:49:10.862Z,1019.79
2018-06-22T16:50:37.601Z,1019.78
2018-06-22T16:52:05.045Z,1019.80
2018-06-22T16:53:32.561Z,1019.80
2018-06-22T16:55:00.055Z,1019.76
2018-06-22T16:56:26.910Z,1019.79
2018-06-22T16:57:53.926Z,1019.78
2018-06-22T16:59:21.229Z,1019.78
2018-06-22T17:00:48.827Z,1019.75
2018-06-22T17:02:16.045Z,1019.75
2018-06-22T17:03:43.387Z,1019.76
2018-06-22T17:05:10.775Z,1019.72
2018-06-22T17:06:37.507Z,1019.78
2018-06-22T17:08:05.015Z,1019.78
2018-06-22T17:09:32.528Z,1019.75
2018-06-22T17:10:59.386Z,1019.76
2018-06-22T17:12:26.826Z,1019.80
2018-06-22T17:13:54.437Z,1019.80
2018-06-22T17:15:21.733Z,1019.74
2018-06-22T17:16:49.227Z,1019.77
2018-06-22T17:18:16.315Z,1019.73
2018-06-22T17:19:43.534Z,1019.77
2018-06-22T17:21:09.793Z,1019.78
2018-06-22T17:22:37.177Z,1019.77
2018-06-22T17:24:04.753Z,1019.80
2018-06-22T17:25:32.083Z,1019.77
2018-06-22T17:26:59.537Z,1019.78
2018-06-22T17:28:26.407Z,1019.77
2018-06-22T17:29:53.138Z,1019.78
2018-06-22T17:31:20.332Z,1019.84
2018-06-22T17:32:46.909Z,1019.87
2018-06-22T17:34:14.236Z,1019.80
2018-06-22T17:35:41.706Z,1019.79